Time;durP1;ratioP1;P1;durP2;ratioP2;P2;SDS_P1;SDS_P2;PMS_P1;PMS_P2;Temp;Humidity;BMP_temperature;BMP_pressure;BME280_temperature;BME280_humidity;BME280_pressure;Samples;Min_cycle;Max_cycle;Signal;HPM_P1;HPM_P2
2021/12/15 00:01:07;;;;;;;29.47;10.20;;;7.00;97.30;;;;;;5033117;28;20437;-83
2021/12/15 00:03:34;;;;;;;25.87;10.40;;;7.00;97.30;;;;;;5033091;28;20876;-83
2021/12/15 00:05:59;;;;;;;29.50;10.00;;;7.00;97.30;;;;;;5032241;28;20399;-82
2021/12/15 00:08:25;;;;;;;29.30;10.40;;;7.00;97.30;;;;;;5015971;28;20939;-82
2021/12/15 00:10:51;;;;;;;23.10;9.93;;;7.00;97.30;;;;;;5031389;28;20173;-83
2021/12/15 00:13:19;;;;;;;19.60;9.17;;;7.00;97.30;;;;;;5015676;28;20429;-82
2021/12/15 00:15:46;;;;;;;27.03;9.53;;;7.00;97.30;;;;;;5015305;28;20539;-83
2021/12/15 00:18:12;;;;;;;24.03;9.13;;;7.00;97.30;;;;;;5032500;28;20443;-82
2021/12/15 00:20:40;;;;;;;26.57;10.33;;;7.00;97.30;;;;;;5014799;28;20427;-83
2021/12/15 00:23:06;;;;;;;24.60;9.47;;;7.00;97.30;;;;;;5014496;28;20447;-82
2021/12/15 00:25:35;;;;;;;28.00;10.20;;;7.00;97.30;;;;;;5014514;28;20419;-82
2021/12/15 00:28:01;;;;;;;25.17;10.10;;;7.00;97.30;;;;;;5031524;28;20275;-83
2021/12/15 00:30:27;;;;;;;23.93;9.10;;;7.00;97.30;;;;;;5015238;28;20435;-83
2021/12/15 00:32:53;;;;;;;25.60;11.07;;;6.90;97.30;;;;;;5016602;28;20271;-83
2021/12/15 00:35:20;;;;;;;27.90;9.77;;;6.90;97.30;;;;;;5033713;28;20450;-82
2021/12/15 00:37:46;;;;;;;30.40;11.30;;;6.90;97.30;;;;;;5018304;28;20258;-83
2021/12/15 00:40:14;;;;;;;30.13;9.27;;;6.90;97.30;;;;;;5020868;28;20435;-82
2021/12/15 00:42:40;;;;;;;24.03;9.90;;;6.90;97.30;;;;;;5020528;28;20557;-81
2021/12/15 00:45:07;;;;;;;23.60;10.00;;;6.90;97.30;;;;;;5020683;28;20869;-83
2021/12/15 00:47:33;;;;;;;24.93;8.70;;;6.90;97.30;;;;;;5037031;28;20244;-83
2021/12/15 00:50:06;;;;;;;27.17;9.47;;;6.90;97.30;;;;;;5020623;28;20415;-83
2021/12/15 00:52:32;;;;;;;26.53;9.80;;;6.90;97.30;;;;;;5021529;28;20180;-82
2021/12/15 00:54:58;;;;;;;26.57;8.80;;;6.90;97.30;;;;;;5039647;28;20408;-83
2021/12/15 00:57:24;;;;;;;26.77;9.83;;;6.90;97.30;;;;;;5021074;28;20443;-83
2021/12/15 00:59:49;;;;;;;22.60;9.90;;;6.90;97.30;;;;;;5021000;28;20184;-83
2021/12/15 01:02:15;;;;;;;21.33;8.40;;;6.90;97.30;;;;;;5020965;28;20247;-82
2021/12/15 01:04:40;;;;;;;20.13;8.50;;;6.90;97.30;;;;;;5021598;28;20177;-82
2021/12/15 01:07:08;;;;;;;24.37;10.30;;;6.90;97.30;;;;;;5020953;28;20279;-82
2021/12/15 01:09:48;;;;;;;22.50;10.10;;;6.90;97.30;;;;;;5036582;28;20176;-83
2021/12/15 01:20:47;;;;;;;27.07;9.17;;;6.90;97.30;;;;;;5040842;28;20955;-83
2021/12/15 01:23:16;;;;;;;20.40;9.90;;;6.80;97.30;;;;;;5035569;28;20519;-83
2021/12/15 01:25:49;;;;;;;29.13;9.07;;;6.90;97.30;;;;;;5017361;28;20831;-83
2021/12/15 01:28:15;;;;;;;28.33;10.60;;;6.90;97.30;;;;;;5017543;28;20423;-82
2021/12/15 01:30:44;;;;;;;24.77;8.67;;;6.90;97.30;;;;;;5034833;28;20452;-83
2021/12/15 01:33:10;;;;;;;20.97;10.23;;;6.80;97.30;;;;;;5017578;28;20407;-83
2021/12/15 01:35:39;;;;;;;22.50;8.73;;;6.90;97.30;;;;;;5017628;28;20473;-83
2021/12/15 01:38:05;;;;;;;33.40;10.57;;;6.90;97.30;;;;;;5017451;28;20969;-81
2021/12/15 01:40:35;;;;;;;23.77;10.30;;;6.90;97.30;;;;;;5034957;28;20430;-82
2021/12/15 01:43:16;;;;;;;22.53;8.40;;;6.90;97.30;;;;;;5033900;28;20459;-82
2021/12/15 01:48:28;;;;;;;24.80;9.70;;;6.90;97.30;;;;;;5035923;28;20899;-83
2021/12/15 01:50:53;;;;;;;25.73;8.90;;;6.90;97.30;;;;;;5017507;28;20407;-83
2021/12/15 01:53:19;;;;;;;24.13;8.90;;;6.90;97.30;;;;;;5016638;28;20319;-83
2021/12/15 01:55:46;;;;;;;22.77;8.40;;;6.90;97.30;;;;;;5016911;28;20545;-83
2021/12/15 01:58:12;;;;;;;21.13;8.93;;;7.00;97.30;;;;;;5016602;28;20196;-82
2021/12/15 02:00:40;;;;;;;24.77;7.60;;;7.00;97.30;;;;;;5016878;28;20422;-83
2021/12/15 02:03:06;;;;;;;19.03;8.67;;;7.00;97.30;;;;;;5017305;28;20550;-83
2021/12/15 02:05:33;;;;;;;18.20;7.30;;;7.00;97.30;;;;;;5016906;28;20934;-84
2021/12/15 02:08:00;;;;;;;26.87;8.80;;;7.00;97.30;;;;;;5016586;28;20223;-82
2021/12/15 02:10:29;;;;;;;22.50;8.67;;;7.00;97.30;;;;;;5016313;28;20423;-83
2021/12/15 02:12:57;;;;;;;23.30;8.47;;;7.00;97.30;;;;;;5016724;28;20451;-83
2021/12/15 02:15:28;;;;;;;22.90;8.20;;;7.00;97.30;;;;;;5016419;28;21016;-82
2021/12/15 02:17:54;;;;;;;22.57;8.10;;;7.00;97.30;;;;;;5034206;28;20427;-83
2021/12/15 02:20:27;;;;;;;18.60;8.50;;;7.00;97.30;;;;;;5016550;28;20502;-83
2021/12/15 02:22:53;;;;;;;20.80;7.50;;;7.00;97.30;;;;;;5016130;28;20447;-82
2021/12/15 02:25:19;;;;;;;20.00;8.07;;;7.00;97.30;;;;;;5016681;28;20569;-83
2021/12/15 02:27:45;;;;;;;23.57;8.67;;;7.00;97.30;;;;;;5016214;28;20201;-83
2021/12/15 02:30:23;;;;;;;25.00;6.93;;;7.00;97.30;;;;;;5016484;28;20414;-83
2021/12/15 02:33:01;;;;;;;18.63;7.80;;;7.00;97.30;;;;;;5016600;28;20180;-83
2021/12/15 02:38:12;;;;;;;19.20;7.33;;;7.10;97.30;;;;;;5034781;28;20570;-83
2021/12/15 02:40:39;;;;;;;20.40;7.80;;;7.10;97.30;;;;;;5016459;28;20457;-83
2021/12/15 02:43:05;;;;;;;20.00;8.70;;;7.00;97.30;;;;;;5016131;28;20203;-82
2021/12/15 02:45:32;;;;;;;17.63;8.23;;;7.10;97.30;;;;;;5016364;28;20415;-83
2021/12/15 02:47:58;;;;;;;19.53;7.13;;;7.00;97.30;;;;;;5016202;28;20431;-83
2021/12/15 02:50:27;;;;;;;19.17;7.80;;;7.00;97.30;;;;;;5016242;28;20412;-83
2021/12/15 02:52:54;;;;;;;21.77;7.60;;;7.00;97.30;;;;;;5015756;28;20466;-83
2021/12/15 02:55:20;;;;;;;18.27;7.80;;;7.00;97.30;;;;;;5015864;28;20434;-83
2021/12/15 02:57:47;;;;;;;19.43;7.23;;;7.00;97.30;;;;;;5015549;28;20440;-82
2021/12/15 03:00:23;;;;;;;20.67;7.30;;;7.00;97.30;;;;;;5015041;28;20215;-83
2021/12/15 03:05:28;;;;;;;20.20;8.10;;;7.00;97.30;;;;;;5033853;28;20417;-84
2021/12/15 03:08:09;;;;;;;17.27;7.83;;;7.00;97.30;;;;;;5015435;28;20896;-83
2021/12/15 03:16:07;;;;;;;17.90;7.90;;;7.00;97.30;;;;;;5033697;28;20541;-82
2021/12/15 03:18:34;;;;;;;21.30;7.80;;;7.00;97.30;;;;;;5015822;28;20419;-82
2021/12/15 03:21:07;;;;;;;17.33;7.20;;;7.00;97.30;;;;;;5015563;28;20790;-83
2021/12/15 03:23:55;;;;;;;18.03;7.67;;;7.00;97.30;;;;;;5015045;28;20454;-83
2021/12/15 03:26:27;;;;;;;26.43;8.10;;;7.00;97.30;;;;;;5015798;28;20952;-83
2021/12/15 03:37:26;;;;;;;25.80;8.37;;;7.00;97.30;;;;;;5033477;28;20970;-83
2021/12/15 03:40:06;;;;;;;20.63;8.67;;;7.00;97.30;;;;;;5015507;28;20415;-83
2021/12/15 03:42:37;;;;;;;13.93;7.10;;;7.00;97.30;;;;;;5014479;28;20451;-83
2021/12/15 03:45:06;;;;;;;18.10;6.63;;;7.00;97.30;;;;;;5015158;28;20407;-82
2021/12/15 03:47:35;;;;;;;21.50;7.73;;;7.10;97.30;;;;;;5014953;28;20439;-83
2021/12/15 03:50:04;;;;;;;18.80;6.80;;;7.00;97.30;;;;;;5014698;28;20412;-83
2021/12/15 03:52:29;;;;;;;20.63;7.30;;;7.00;97.30;;;;;;5032360;28;20411;-83
2021/12/15 03:54:55;;;;;;;18.83;7.50;;;7.00;97.30;;;;;;5015419;28;20781;-83
2021/12/15 03:57:21;;;;;;;19.67;7.50;;;7.00;97.30;;;;;;5015762;28;20227;-83
2021/12/15 03:59:47;;;;;;;18.50;7.70;;;7.00;97.30;;;;;;5015178;28;20195;-83
2021/12/15 04:02:16;;;;;;;23.50;9.47;;;7.10;97.30;;;;;;5014507;28;20549;-83
2021/12/15 04:04:44;;;;;;;23.57;8.23;;;7.10;97.30;;;;;;5014916;28;20200;-83
2021/12/15 04:07:10;;;;;;;15.20;6.80;;;7.10;97.30;;;;;;5014966;28;21011;-83
2021/12/15 04:09:37;;;;;;;15.93;7.07;;;7.10;97.30;;;;;;5015176;28;20414;-83
2021/12/15 04:12:03;;;;;;;18.90;6.87;;;7.10;97.30;;;;;;5013461;28;20419;-82
2021/12/15 04:14:34;;;;;;;17.27;8.37;;;7.10;97.30;;;;;;5014525;28;20937;-83
2021/12/15 04:17:04;;;;;;;21.60;8.20;;;7.10;97.30;;;;;;5014975;28;20435;-82
2021/12/15 04:19:31;;;;;;;17.90;7.30;;;7.10;97.30;;;;;;5015405;28;20507;-83
2021/12/15 04:21:58;;;;;;;17.17;7.70;;;7.00;97.30;;;;;;5014853;28;20530;-82
2021/12/15 04:24:26;;;;;;;17.87;7.23;;;7.00;97.30;;;;;;5014593;28;20414;-82
2021/12/15 04:26:54;;;;;;;17.97;7.20;;;7.00;97.30;;;;;;5014552;28;20817;-83
2021/12/15 04:29:20;;;;;;;21.40;8.17;;;7.00;97.30;;;;;;5014811;28;20468;-83
2021/12/15 04:32:03;;;;;;;18.23;7.10;;;7.00;97.30;;;;;;5014695;28;20419;-82
2021/12/15 04:34:28;;;;;;;15.73;5.90;;;7.00;97.30;;;;;;5014607;28;20411;-83
2021/12/15 04:36:54;;;;;;;15.73;6.57;;;7.00;97.30;;;;;;5014724;28;20446;-83
2021/12/15 04:39:26;;;;;;;19.37;7.60;;;7.00;97.30;;;;;;5015162;28;20176;-82
2021/12/15 04:41:55;;;;;;;18.83;7.33;;;7.00;97.30;;;;;;5014305;28;20196;-83
2021/12/15 04:44:25;;;;;;;16.47;6.70;;;7.00;97.30;;;;;;5031735;28;20494;-82
2021/12/15 04:46:59;;;;;;;20.97;6.90;;;7.00;97.30;;;;;;5014323;28;20866;-83
2021/12/15 04:49:24;;;;;;;23.27;7.53;;;7.00;97.30;;;;;;5016402;28;20454;-82
2021/12/15 04:51:50;;;;;;;13.80;6.57;;;7.10;97.30;;;;;;5016232;28;20419;-81
2021/12/15 04:54:17;;;;;;;16.93;6.33;;;7.00;97.30;;;;;;5015808;28;20459;-82
2021/12/15 04:56:43;;;;;;;19.47;7.50;;;7.00;97.30;;;;;;5016389;28;20197;-82
2021/12/15 04:59:09;;;;;;;20.20;7.90;;;7.10;97.30;;;;;;5026376;28;20537;-82
2021/12/15 05:01:35;;;;;;;16.67;7.67;;;7.10;97.30;;;;;;5035889;28;20261;-82
2021/12/15 05:04:00;;;;;;;19.60;7.70;;;7.10;97.30;;;;;;5036484;28;20180;-82
2021/12/15 05:06:26;;;;;;;18.93;7.60;;;7.10;97.30;;;;;;5036781;28;20981;-82
2021/12/15 05:08:52;;;;;;;15.13;6.63;;;7.10;97.30;;;;;;5054960;28;20168;-82
2021/12/15 05:11:17;;;;;;;16.90;7.10;;;7.10;97.30;;;;;;5036751;28;20164;-82
2021/12/15 05:13:43;;;;;;;17.37;7.30;;;7.10;97.30;;;;;;5036055;28;20271;-82
2021/12/15 05:16:09;;;;;;;17.50;7.20;;;7.10;97.30;;;;;;5036223;28;20195;-83
2021/12/15 05:18:34;;;;;;;18.70;7.30;;;7.10;97.30;;;;;;5028427;28;20717;-82
2021/12/15 05:21:00;;;;;;;16.97;7.10;;;7.10;97.30;;;;;;5016920;28;20596;-81
2021/12/15 05:23:30;;;;;;;20.40;7.60;;;7.10;97.30;;;;;;5016744;28;20200;-81
2021/12/15 05:25:58;;;;;;;18.13;7.30;;;7.10;97.30;;;;;;5020212;28;20935;-82
2021/12/15 05:28:24;;;;;;;21.20;7.70;;;7.10;97.30;;;;;;5020221;28;20442;-82
2021/12/15 05:30:50;;;;;;;18.97;6.90;;;7.00;97.30;;;;;;5037724;28;20415;-82
2021/12/15 05:33:15;;;;;;;17.90;7.70;;;7.10;97.30;;;;;;5021134;28;20437;-83
2021/12/15 05:35:41;;;;;;;17.87;7.60;;;7.10;97.30;;;;;;5021145;28;20415;-81
2021/12/15 05:38:08;;;;;;;20.50;7.40;;;7.10;97.30;;;;;;5020596;28;20686;-82
2021/12/15 05:40:35;;;;;;;22.47;7.63;;;7.10;97.30;;;;;;5036765;28;20464;-82
2021/12/15 05:43:01;;;;;;;19.47;7.57;;;7.10;97.30;;;;;;5019143;28;20478;-83
2021/12/15 05:45:30;;;;;;;13.80;6.63;;;7.10;97.30;;;;;;5019361;28;20411;-82
2021/12/15 05:47:58;;;;;;;19.60;7.10;;;7.10;97.30;;;;;;5017947;28;20431;-82
2021/12/15 05:50:27;;;;;;;19.03;7.67;;;7.10;97.30;;;;;;5018806;28;20438;-82
2021/12/15 05:52:53;;;;;;;20.23;6.87;;;7.10;97.30;;;;;;5017736;28;20419;-82
2021/12/15 05:55:20;;;;;;;20.90;7.30;;;7.10;97.30;;;;;;5018551;28;20419;-83
2021/12/15 05:57:49;;;;;;;21.33;7.30;;;7.10;97.30;;;;;;5018078;28;20450;-83
2021/12/15 06:00:30;;;;;;;20.30;8.10;;;7.10;97.30;;;;;;5037120;28;21058;-85
2021/12/15 06:02:58;;;;;;;17.67;7.60;;;7.10;97.30;;;;;;5056973;28;20533;-82
2021/12/15 06:05:28;;;;;;;25.00;8.00;;;7.10;97.30;;;;;;5039655;28;20509;-81
2021/12/15 06:07:54;;;;;;;23.47;7.27;;;7.10;97.30;;;;;;5039549;28;20438;-82
2021/12/15 06:10:24;;;;;;;20.70;8.40;;;7.10;97.30;;;;;;5039929;28;20468;-82
2021/12/15 06:12:50;;;;;;;15.60;7.37;;;7.10;97.30;;;;;;5039050;28;20183;-81
2021/12/15 06:15:23;;;;;;;14.83;6.90;;;7.10;97.30;;;;;;5039284;28;20509;-82
2021/12/15 06:17:52;;;;;;;20.07;7.50;;;7.10;97.30;;;;;;5039126;28;20533;-82
2021/12/15 06:20:19;;;;;;;27.40;8.07;;;7.10;97.30;;;;;;5035545;28;20422;-82
2021/12/15 06:22:45;;;;;;;22.00;8.73;;;7.10;97.30;;;;;;5039287;28;20466;-82
2021/12/15 06:25:12;;;;;;;18.93;7.93;;;7.10;97.30;;;;;;5057407;28;20771;-82
2021/12/15 06:27:40;;;;;;;23.70;9.13;;;7.10;97.30;;;;;;5039235;28;20434;-83
2021/12/15 06:30:09;;;;;;;17.93;7.03;;;7.10;97.30;;;;;;5038917;28;20422;-81
2021/12/15 06:32:38;;;;;;;25.30;9.23;;;7.10;97.30;;;;;;5038769;28;20406;-82
2021/12/15 06:35:09;;;;;;;20.07;8.47;;;7.10;97.30;;;;;;5037649;28;20429;-81
2021/12/15 06:37:35;;;;;;;17.23;7.87;;;7.00;97.30;;;;;;5038421;28;20959;-81
2021/12/15 06:40:03;;;;;;;19.40;8.33;;;7.00;97.30;;;;;;5039084;28;20533;-82
2021/12/15 06:42:30;;;;;;;18.90;7.47;;;7.00;97.30;;;;;;5039241;28;20506;-82
2021/12/15 06:44:57;;;;;;;24.43;8.40;;;7.00;97.30;;;;;;5039415;28;20500;-81
2021/12/15 06:58:24;;;;;;;23.67;9.77;;;6.90;97.30;;;;;;5052818;28;20963;-82
2021/12/15 07:00:55;;;;;;;25.60;8.80;;;6.90;97.30;;;;;;5018314;28;20426;-83
2021/12/15 07:03:22;;;;;;;24.10;9.13;;;6.90;97.30;;;;;;5018086;28;21000;-84
2021/12/15 07:05:49;;;;;;;21.80;8.50;;;6.90;97.30;;;;;;5036298;28;20407;-82
2021/12/15 07:08:15;;;;;;;24.37;9.37;;;6.90;97.30;;;;;;5017157;28;20434;-79
2021/12/15 07:10:44;;;;;;;20.77;8.40;;;6.90;97.30;;;;;;5017535;28;20480;-80
2021/12/15 07:13:12;;;;;;;21.20;8.53;;;6.90;97.30;;;;;;5017125;28;20423;-80
2021/12/15 07:15:38;;;;;;;27.33;8.30;;;6.90;97.30;;;;;;5020184;28;20431;-80
2021/12/15 07:18:10;;;;;;;22.07;8.20;;;7.00;97.30;;;;;;5022802;28;20445;-81
2021/12/15 07:20:44;;;;;;;20.17;7.80;;;7.00;97.30;;;;;;5026829;28;20419;-80
2021/12/15 07:23:18;;;;;;;18.20;7.90;;;7.00;97.30;;;;;;5032196;28;20458;-81
2021/12/15 07:25:46;;;;;;;22.37;7.97;;;7.00;97.30;;;;;;5037902;28;20912;-82
2021/12/15 07:28:12;;;;;;;21.70;8.00;;;7.00;97.30;;;;;;5038691;28;21013;-81
2021/12/15 07:30:39;;;;;;;23.23;7.77;;;7.00;97.30;;;;;;5038079;28;20442;-81
2021/12/15 07:33:10;;;;;;;20.23;8.50;;;7.00;97.30;;;;;;5037751;28;20414;-81
2021/12/15 07:35:40;;;;;;;23.57;8.30;;;7.00;97.30;;;;;;5037805;28;20415;-82
2021/12/15 07:38:10;;;;;;;14.73;7.20;;;7.00;97.30;;;;;;5036976;28;20442;-82
2021/12/15 07:40:37;;;;;;;19.27;8.07;;;7.00;97.30;;;;;;5037491;28;20853;-81
2021/12/15 07:43:11;;;;;;;21.20;8.07;;;7.00;97.30;;;;;;5038247;28;20829;-81
2021/12/15 07:45:42;;;;;;;19.60;7.53;;;7.00;97.30;;;;;;5038972;28;20426;-81
2021/12/15 07:48:09;;;;;;;17.03;6.73;;;7.00;97.30;;;;;;5038187;28;20994;-81
2021/12/15 07:50:36;;;;;;;23.97;8.33;;;7.00;97.30;;;;;;5056165;28;20846;-81
2021/12/15 07:53:03;;;;;;;21.23;8.37;;;7.10;97.30;;;;;;5037539;28;20450;-81
2021/12/15 07:55:29;;;;;;;21.00;7.20;;;7.10;97.30;;;;;;5038126;28;20427;-81
2021/12/15 07:57:55;;;;;;;15.57;6.67;;;7.10;97.30;;;;;;5038019;28;20430;-81
2021/12/15 08:00:22;;;;;;;15.40;7.63;;;7.10;97.30;;;;;;5037558;28;20676;-81
2021/12/15 08:02:48;;;;;;;18.53;8.90;;;7.10;97.30;;;;;;5038016;28;20200;-81
2021/12/15 08:05:14;;;;;;;21.30;8.00;;;7.10;97.30;;;;;;5038411;28;20442;-82
2021/12/15 08:07:40;;;;;;;18.47;7.70;;;7.20;97.30;;;;;;5038301;28;20260;-82
2021/12/15 08:10:09;;;;;;;18.40;7.70;;;7.20;97.30;;;;;;5038566;28;20410;-82
2021/12/15 08:12:35;;;;;;;18.00;7.27;;;7.20;97.30;;;;;;5038721;28;20202;-82
2021/12/15 08:15:01;;;;;;;21.47;7.63;;;7.20;97.30;;;;;;5038216;28;20986;-82
2021/12/15 08:17:26;;;;;;;16.10;6.80;;;7.20;97.30;;;;;;5038795;28;20226;-81
2021/12/15 08:19:52;;;;;;;20.40;9.60;;;7.20;97.30;;;;;;5038150;28;20480;-81
2021/12/15 08:22:18;;;;;;;16.33;7.10;;;7.20;97.30;;;;;;5024696;28;20254;-81
2021/12/15 08:24:44;;;;;;;20.63;7.53;;;7.30;97.30;;;;;;5018621;28;20254;-81
2021/12/15 08:27:09;;;;;;;17.13;7.20;;;7.30;97.30;;;;;;5018002;28;20226;-81
2021/12/15 08:29:35;;;;;;;18.70;7.00;;;7.30;97.30;;;;;;5018210;28;20256;-80
2021/12/15 08:32:02;;;;;;;17.17;7.47;;;7.30;97.30;;;;;;5035164;28;20259;-81
2021/12/15 08:34:27;;;;;;;17.60;7.33;;;7.30;97.30;;;;;;5017697;28;20423;-81
2021/12/15 08:36:54;;;;;;;14.70;6.47;;;7.30;97.30;;;;;;5017236;28;20445;-81
2021/12/15 08:39:20;;;;;;;19.47;7.20;;;7.40;97.30;;;;;;5018129;28;20546;-82
2021/12/15 08:41:47;;;;;;;18.70;7.07;;;7.40;97.30;;;;;;5017586;28;20473;-80
2021/12/15 08:44:13;;;;;;;16.20;6.77;;;7.40;97.30;;;;;;5017436;28;20176;-81
2021/12/15 08:46:41;;;;;;;17.33;7.10;;;7.40;97.30;;;;;;5017276;28;20504;-80
2021/12/15 08:49:10;;;;;;;14.20;6.67;;;7.40;97.30;;;;;;5017757;28;20404;-80
2021/12/15 08:51:36;;;;;;;21.53;7.47;;;7.40;97.30;;;;;;5034958;28;20404;-80
2021/12/15 08:54:09;;;;;;;19.40;7.13;;;7.40;97.30;;;;;;5016748;28;20467;-81
2021/12/15 08:56:36;;;;;;;20.13;9.07;;;7.40;97.30;;;;;;5017074;28;20430;-81
2021/12/15 08:59:02;;;;;;;38.40;11.10;;;7.50;97.30;;;;;;5018821;28;20421;-80
2021/12/15 09:01:28;;;;;;;20.70;8.20;;;7.50;97.30;;;;;;5037454;28;20416;-81
2021/12/15 09:03:54;;;;;;;19.40;7.30;;;7.50;97.30;;;;;;5020780;28;20482;-82
2021/12/15 09:06:20;;;;;;;18.17;7.20;;;7.50;97.30;;;;;;5021022;28;20745;-80
2021/12/15 09:08:46;;;;;;;16.07;6.33;;;7.50;97.30;;;;;;5021387;28;20199;-80
2021/12/15 09:11:15;;;;;;;13.50;6.20;;;7.50;97.30;;;;;;5020721;28;20451;-80
2021/12/15 09:13:42;;;;;;;20.73;7.47;;;7.50;97.30;;;;;;5021183;28;20176;-83
2021/12/15 09:16:10;;;;;;;14.67;6.30;;;7.60;97.30;;;;;;5021372;28;21054;-81
2021/12/15 09:18:38;;;;;;;17.40;6.27;;;7.60;97.30;;;;;;5022102;28;20422;-81
2021/12/15 09:21:05;;;;;;;15.97;6.97;;;7.50;97.30;;;;;;5040341;28;20414;-81
2021/12/15 09:23:31;;;;;;;13.63;6.57;;;7.50;97.30;;;;;;5022020;28;20548;-82
2021/12/15 09:25:57;;;;;;;19.57;6.93;;;7.60;97.30;;;;;;5039808;28;20415;-82
2021/12/15 09:28:24;;;;;;;17.03;6.20;;;7.60;97.30;;;;;;5038236;28;20188;-81
2021/12/15 09:30:52;;;;;;;14.77;6.10;;;7.60;97.30;;;;;;5037299;28;20407;-81
2021/12/15 09:33:25;;;;;;;14.33;5.40;;;7.60;97.30;;;;;;5038015;28;20496;-81
2021/12/15 09:35:52;;;;;;;20.30;7.20;;;7.60;97.30;;;;;;5021972;28;20415;-83
2021/12/15 09:38:19;;;;;;;13.17;6.83;;;7.60;97.30;;;;;;5037558;28;20918;-81
2021/12/15 09:40:46;;;;;;;15.33;6.17;;;7.60;97.30;;;;;;5020837;28;20903;-80
2021/12/15 09:43:12;;;;;;;17.80;7.27;;;7.60;97.30;;;;;;5019881;28;20451;-81
2021/12/15 09:46:02;;;;;;;15.87;5.83;;;7.60;97.30;;;;;;5019733;28;20412;-80
2021/12/15 09:56:24;;;;;;;16.83;6.17;;;7.60;97.30;;;;;;5036401;28;20820;-80
2021/12/15 10:02:26;;;;;;;17.57;5.30;;;7.70;97.30;;;;;;5038257;28;20441;-81
2021/12/15 10:05:19;;;;;;;17.57;6.50;;;7.70;97.30;;;;;;5019351;28;20416;-81
2021/12/15 10:19:25;;;;;;;13.80;5.93;;;7.80;97.30;;;;;;5035779;28;20422;-81
2021/12/15 10:22:08;;;;;;;10.87;5.53;;;7.80;97.30;;;;;;5038106;28;20399;-83
2021/12/15 10:24:51;;;;;;;13.43;5.87;;;7.90;97.30;;;;;;5021643;28;20402;-81
2021/12/15 10:27:48;;;;;;;14.10;5.43;;;7.90;97.30;;;;;;5020918;28;20470;-83
2021/12/15 10:30:19;;;;;;;12.87;5.70;;;7.90;97.30;;;;;;5015272;28;20411;-81
2021/12/15 10:32:47;;;;;;;14.60;5.33;;;7.90;97.30;;;;;;5020464;28;20919;-82
2021/12/15 10:35:21;;;;;;;15.37;5.60;;;8.00;97.30;;;;;;5019498;28;20419;-81
2021/12/15 10:38:10;;;;;;;14.60;5.93;;;8.00;97.30;;;;;;5018718;28;20458;-82
2021/12/15 10:41:05;;;;;;;15.90;5.63;;;8.00;97.30;;;;;;5019094;28;20419;-81
2021/12/15 10:43:45;;;;;;;18.90;6.27;;;8.00;97.30;;;;;;5016034;28;20454;-83
2021/12/15 10:46:33;;;;;;;13.33;5.63;;;8.10;97.30;;;;;;5018110;28;20415;-80
2021/12/15 10:49:01;;;;;;;15.90;6.00;;;8.10;97.30;;;;;;5019403;28;20407;-82
2021/12/15 10:51:38;;;;;;;14.60;6.90;;;8.20;97.30;;;;;;5017389;28;20426;-83
2021/12/15 10:54:18;;;;;;;12.90;5.40;;;8.20;97.30;;;;;;5016861;28;20550;-82
2021/12/15 10:56:58;;;;;;;14.07;6.87;;;8.30;97.30;;;;;;5017029;28;20968;-82
2021/12/15 10:59:32;;;;;;;15.03;5.30;;;8.40;97.30;;;;;;5017687;28;20506;-83
2021/12/15 11:02:00;;;;;;;17.40;6.60;;;8.40;97.30;;;;;;5016791;28;20449;-82
2021/12/15 11:04:39;;;;;;;12.00;5.87;;;8.40;97.30;;;;;;5016584;28;20473;-83
2021/12/15 11:07:11;;;;;;;13.43;7.03;;;8.60;97.30;;;;;;5016570;28;20427;-82
2021/12/15 11:09:49;;;;;;;10.90;5.07;;;8.70;97.30;;;;;;5017217;28;20417;-82
2021/12/15 11:12:26;;;;;;;14.77;6.27;;;8.80;97.30;;;;;;5017694;28;20427;-82
2021/12/15 11:15:14;;;;;;;13.77;5.00;;;8.80;97.30;;;;;;5017485;28;20414;-82
2021/12/15 11:17:56;;;;;;;11.30;4.97;;;8.80;97.30;;;;;;5016586;28;20792;-82
2021/12/15 11:20:24;;;;;;;11.30;5.33;;;8.80;97.30;;;;;;5016659;28;20474;-83
2021/12/15 11:22:57;;;;;;;12.17;5.87;;;8.90;97.30;;;;;;5016860;28;20455;-83
2021/12/15 11:25:27;;;;;;;13.00;5.80;;;8.90;97.30;;;;;;5032768;28;20494;-82
2021/12/15 11:28:19;;;;;;;10.80;6.07;;;8.90;97.30;;;;;;5015390;28;20434;-83
2021/12/15 11:31:06;;;;;;;12.67;6.07;;;9.00;97.30;;;;;;5016156;28;20446;-82
2021/12/15 11:33:42;;;;;;;10.73;5.47;;;9.00;97.30;;;;;;5016607;28;20419;-83
2021/12/15 11:36:12;;;;;;;13.13;5.10;;;9.10;97.30;;;;;;5018802;28;20453;-82
2021/12/15 11:38:48;;;;;;;12.93;5.87;;;9.10;97.30;;;;;;5016463;28;20419;-83
2021/12/15 11:41:20;;;;;;;12.23;6.53;;;9.10;97.30;;;;;;5020227;28;20456;-84
2021/12/15 11:43:56;;;;;;;14.50;5.43;;;9.20;97.30;;;;;;4995641;28;20460;-84
2021/12/15 11:46:35;;;;;;;13.60;5.40;;;9.20;97.30;;;;;;4995589;28;20436;-83
2021/12/15 11:49:06;;;;;;;12.07;5.80;;;9.20;97.30;;;;;;4995766;28;20817;-83
2021/12/15 11:51:44;;;;;;;13.03;5.60;;;9.30;97.30;;;;;;5022597;28;20436;-83
2021/12/15 11:54:38;;;;;;;10.60;5.40;;;9.30;97.30;;;;;;5016317;28;20475;-82
2021/12/15 11:57:05;;;;;;;17.33;5.80;;;9.30;97.30;;;;;;5016835;28;20439;-82
2021/12/15 11:59:34;;;;;;;13.97;6.20;;;9.30;97.30;;;;;;5016767;28;20459;-83
2021/12/15 12:02:26;;;;;;;12.83;5.80;;;9.30;97.30;;;;;;5015582;28;20427;-83
2021/12/15 12:04:55;;;;;;;18.03;5.70;;;9.50;97.30;;;;;;5016512;28;20423;-83
2021/12/15 12:07:32;;;;;;;13.53;6.37;;;9.60;97.30;;;;;;5015030;28;20442;-83
2021/12/15 12:10:11;;;;;;;9.53;5.67;;;9.70;97.30;;;;;;5015125;28;20410;-83
2021/12/15 12:12:49;;;;;;;12.77;5.13;;;9.80;97.30;;;;;;5015747;28;20422;-84
2021/12/15 12:15:21;;;;;;;14.23;6.33;;;9.80;97.30;;;;;;5033863;28;20986;-83
2021/12/15 12:17:51;;;;;;;9.73;5.40;;;9.90;97.30;;;;;;5015910;28;20439;-83
2021/12/15 12:20:24;;;;;;;7.73;4.33;;;10.10;97.30;;;;;;5013832;28;20423;-82
2021/12/15 12:22:51;;;;;;;12.23;4.60;;;10.40;97.30;;;;;;5014309;28;20983;-82
2021/12/15 12:25:21;;;;;;;9.50;4.47;;;10.70;97.30;;;;;;5014303;28;20412;-81
2021/12/15 12:27:48;;;;;;;12.10;5.43;;;10.60;97.30;;;;;;5014597;28;20494;-82
2021/12/15 12:30:31;;;;;;;8.33;4.20;;;10.40;97.30;;;;;;5016783;28;20476;-82
2021/12/15 12:32:57;;;;;;;10.30;4.77;;;10.40;97.30;;;;;;5034902;28;20407;-79
2021/12/15 12:35:27;;;;;;;9.50;4.60;;;10.30;97.30;;;;;;5020731;28;20505;-82
2021/12/15 12:37:59;;;;;;;8.10;4.40;;;10.10;97.30;;;;;;5020949;28;20435;-82
2021/12/15 12:40:33;;;;;;;10.77;4.40;;;10.10;97.30;;;;;;5021958;28;20410;-82
2021/12/15 12:42:59;;;;;;;10.50;4.30;;;10.00;97.30;;;;;;5022568;28;20462;-82
2021/12/15 12:45:37;;;;;;;8.70;4.70;;;10.00;97.30;;;;;;5039380;28;20443;-81
2021/12/15 12:48:50;;;;;;;9.17;4.03;;;10.00;97.30;;;;;;5019918;28;20968;-83
2021/12/15 12:59:46;;;;;;;8.27;3.50;;;10.10;97.30;;;;;;5035996;28;20407;-81
2021/12/15 13:02:38;;;;;;;7.20;4.30;;;10.20;97.30;;;;;;5020028;28;20489;-81
2021/12/15 13:05:05;;;;;;;5.60;3.40;;;10.30;97.30;;;;;;5020856;28;20407;-81
2021/12/15 13:07:55;;;;;;;6.60;4.00;;;10.30;97.30;;;;;;5020687;28;20473;-82
2021/12/15 13:10:42;;;;;;;9.67;3.90;;;10.10;97.30;;;;;;5021126;28;20426;-82
2021/12/15 13:13:30;;;;;;;9.70;3.93;;;10.20;97.30;;;;;;5021356;28;20936;-79
2021/12/15 13:16:07;;;;;;;6.60;3.93;;;10.30;97.30;;;;;;5019818;28;20905;-82
2021/12/15 13:18:50;;;;;;;5.60;3.40;;;10.70;97.30;;;;;;5018174;28;20417;-81
2021/12/15 13:21:21;;;;;;;7.47;3.50;;;11.10;97.30;;;;;;5019464;28;20794;-81
2021/12/15 13:23:51;;;;;;;5.60;3.20;;;11.60;97.30;;;;;;5021967;28;20466;-81
2021/12/15 13:29:47;;;;;;;7.03;3.13;;;12.10;97.30;;;;;;5036011;28;20398;-83
2021/12/15 13:32:13;;;;;;;5.33;3.07;;;12.20;97.30;;;;;;5018427;28;20407;-82
2021/12/15 13:34:46;;;;;;;6.13;3.30;;;12.40;97.30;;;;;;5018216;28;20415;-81
2021/12/15 13:37:50;;;;;;;5.43;2.97;;;12.60;97.30;;;;;;5019092;28;20435;-82
2021/12/15 13:40:36;;;;;;;7.30;3.17;;;12.30;97.30;;;;;;5017910;28;20443;-83
2021/12/15 13:43:03;;;;;;;6.53;3.83;;;11.50;97.30;;;;;;5017964;28;20554;-81
2021/12/15 13:45:32;;;;;;;6.13;3.07;;;10.90;97.30;;;;;;5018102;28;20419;-82
2021/12/15 13:47:59;;;;;;;5.80;3.30;;;10.60;97.30;;;;;;5036713;28;20431;-80
2021/12/15 13:50:29;;;;;;;6.23;3.50;;;10.40;97.30;;;;;;5036326;28;20794;-81
2021/12/15 13:53:03;;;;;;;8.00;3.90;;;10.30;97.30;;;;;;5019820;28;20452;-81
2021/12/15 13:55:37;;;;;;;8.13;3.80;;;10.20;97.30;;;;;;5019913;28;20415;-79
2021/12/15 13:58:08;;;;;;;4.90;3.30;;;10.10;97.30;;;;;;5020263;28;20443;-82
2021/12/15 14:00:55;;;;;;;6.90;3.50;;;10.00;97.30;;;;;;5036733;28;20928;-81
2021/12/15 14:03:22;;;;;;;7.03;4.00;;;9.90;97.30;;;;;;5038171;28;20556;-79
2021/12/15 14:06:13;;;;;;;8.67;4.27;;;9.90;97.30;;;;;;5018178;28;20415;-82
2021/12/15 14:08:45;;;;;;;6.93;3.40;;;9.70;97.30;;;;;;5020345;28;20430;-83
2021/12/15 14:11:27;;;;;;;6.50;3.50;;;9.70;97.30;;;;;;5017698;28;20415;-82
2021/12/15 14:14:30;;;;;;;6.50;3.60;;;9.70;97.30;;;;;;5017454;28;20430;-83
2021/12/15 14:16:57;;;;;;;8.37;3.53;;;9.60;97.30;;;;;;4984976;28;20447;-83
2021/12/15 14:19:36;;;;;;;9.57;4.37;;;9.60;97.30;;;;;;5017723;28;20415;-83